sensor_id;sensor_type;location;lat;lon;timestamp;P1;durP1;ratioP1;P2;durP2;ratioP2
4957;SDS011;2494;51.872;9.688;2022-07-01T00:02:05;28.17;;;25.67;;
4957;SDS011;2494;51.872;9.688;2022-07-01T00:04:31;25.63;;;23.33;;
4957;SDS011;2494;51.872;9.688;2022-07-01T00:06:58;25.70;;;23.30;;
4957;SDS011;2494;51.872;9.688;2022-07-01T00:09:24;25.70;;;23.40;;
4957;SDS011;2494;51.872;9.688;2022-07-01T00:11:52;23.90;;;21.67;;
4957;SDS011;2494;51.872;9.688;2022-07-01T00:14:19;21.00;;;19.10;;
4957;SDS011;2494;51.872;9.688;2022-07-01T00:16:47;20.03;;;18.43;;
4957;SDS011;2494;51.872;9.688;2022-07-01T00:19:14;20.60;;;18.87;;
4957;SDS011;2494;51.872;9.688;2022-07-01T00:21:40;20.87;;;19.03;;
4957;SDS011;2494;51.872;9.688;2022-07-01T00:24:06;21.60;;;19.63;;
4957;SDS011;2494;51.872;9.688;2022-07-01T00:26:32;21.90;;;19.73;;
4957;SDS011;2494;51.872;9.688;2022-07-01T00:28:59;19.93;;;18.23;;
4957;SDS011;2494;51.872;9.688;2022-07-01T00:31:26;20.60;;;18.60;;
4957;SDS011;2494;51.872;9.688;2022-07-01T00:33:53;19.77;;;18.07;;
4957;SDS011;2494;51.872;9.688;2022-07-01T00:36:19;19.97;;;18.27;;
4957;SDS011;2494;51.872;9.688;2022-07-01T00:38:46;20.87;;;19.00;;
4957;SDS011;2494;51.872;9.688;2022-07-01T00:41:12;20.20;;;18.50;;
4957;SDS011;2494;51.872;9.688;2022-07-01T00:43:38;19.60;;;18.00;;
4957;SDS011;2494;51.872;9.688;2022-07-01T00:46:05;18.67;;;17.17;;
4957;SDS011;2494;51.872;9.688;2022-07-01T00:48:33;19.03;;;17.50;;
4957;SDS011;2494;51.872;9.688;2022-07-01T00:51:00;18.90;;;17.27;;
4957;SDS011;2494;51.872;9.688;2022-07-01T00:53:26;18.10;;;16.40;;
4957;SDS011;2494;51.872;9.688;2022-07-01T00:55:54;19.67;;;17.97;;
4957;SDS011;2494;51.872;9.688;2022-07-01T00:58:20;20.57;;;18.80;;
4957;SDS011;2494;51.872;9.688;2022-07-01T01:00:47;19.70;;;18.17;;
4957;SDS011;2494;51.872;9.688;2022-07-01T01:03:13;18.63;;;16.93;;
4957;SDS011;2494;51.872;9.688;2022-07-01T01:05:40;17.70;;;16.40;;
4957;SDS011;2494;51.872;9.688;2022-07-01T01:08:08;17.70;;;16.20;;
4957;SDS011;2494;51.872;9.688;2022-07-01T01:10:35;17.50;;;16.00;;
4957;SDS011;2494;51.872;9.688;2022-07-01T01:13:01;16.43;;;14.93;;
4957;SDS011;2494;51.872;9.688;2022-07-01T01:15:28;16.53;;;14.97;;
4957;SDS011;2494;51.872;9.688;2022-07-01T01:17:55;16.17;;;14.90;;
4957;SDS011;2494;51.872;9.688;2022-07-01T01:20:22;15.40;;;13.97;;
4957;SDS011;2494;51.872;9.688;2022-07-01T01:22:50;13.03;;;12.03;;
4957;SDS011;2494;51.872;9.688;2022-07-01T01:25:16;12.23;;;11.23;;
4957;SDS011;2494;51.872;9.688;2022-07-01T01:27:43;9.73;;;9.13;;
4957;SDS011;2494;51.872;9.688;2022-07-01T01:30:10;8.83;;;8.13;;
4957;SDS011;2494;51.872;9.688;2022-07-01T01:32:37;6.83;;;6.43;;
4957;SDS011;2494;51.872;9.688;2022-07-01T01:35:04;6.50;;;6.00;;
4957;SDS011;2494;51.872;9.688;2022-07-01T01:37:30;5.40;;;5.00;;
4957;SDS011;2494;51.872;9.688;2022-07-01T01:39:57;6.40;;;5.80;;
4957;SDS011;2494;51.872;9.688;2022-07-01T01:42:24;5.73;;;5.33;;
4957;SDS011;2494;51.872;9.688;2022-07-01T01:44:50;5.70;;;5.20;;
4957;SDS011;2494;51.872;9.688;2022-07-01T01:47:16;4.80;;;4.50;;
4957;SDS011;2494;51.872;9.688;2022-07-01T01:49:43;4.77;;;4.37;;
4957;SDS011;2494;51.872;9.688;2022-07-01T01:52:10;3.47;;;3.27;;
4957;SDS011;2494;51.872;9.688;2022-07-01T01:54:36;2.10;;;2.00;;
4957;SDS011;2494;51.872;9.688;2022-07-01T01:57:04;2.10;;;2.00;;
4957;SDS011;2494;51.872;9.688;2022-07-01T01:59:30;2.60;;;2.00;;
4957;SDS011;2494;51.872;9.688;2022-07-01T02:01:56;2.13;;;2.03;;
4957;SDS011;2494;51.872;9.688;2022-07-01T02:04:23;2.97;;;2.77;;
4957;SDS011;2494;51.872;9.688;2022-07-01T02:06:50;3.37;;;3.17;;
4957;SDS011;2494;51.872;9.688;2022-07-01T02:09:16;3.50;;;3.30;;
4957;SDS011;2494;51.872;9.688;2022-07-01T02:11:42;4.20;;;3.90;;
4957;SDS011;2494;51.872;9.688;2022-07-01T02:14:11;4.60;;;4.30;;
4957;SDS011;2494;51.872;9.688;2022-07-01T02:16:37;4.77;;;4.20;;
4957;SDS011;2494;51.872;9.688;2022-07-01T02:27:54;5.60;;;5.20;;
4957;SDS011;2494;51.872;9.688;2022-07-01T02:30:22;5.70;;;5.10;;
4957;SDS011;2494;51.872;9.688;2022-07-01T02:32:48;5.10;;;4.60;;
4957;SDS011;2494;51.872;9.688;2022-07-01T02:35:15;4.97;;;4.57;;
4957;SDS011;2494;51.872;9.688;2022-07-01T02:37:41;4.37;;;3.70;;
4957;SDS011;2494;51.872;9.688;2022-07-01T02:40:08;4.80;;;4.30;;
4957;SDS011;2494;51.872;9.688;2022-07-01T02:42:35;4.80;;;4.40;;
4957;SDS011;2494;51.872;9.688;2022-07-01T02:45:02;4.50;;;4.20;;
4957;SDS011;2494;51.872;9.688;2022-07-01T02:47:33;4.87;;;4.47;;
4957;SDS011;2494;51.872;9.688;2022-07-01T02:50:00;3.77;;;3.47;;
4957;SDS011;2494;51.872;9.688;2022-07-01T02:52:26;4.40;;;4.10;;
4957;SDS011;2494;51.872;9.688;2022-07-01T02:54:53;3.80;;;3.43;;
4957;SDS011;2494;51.872;9.688;2022-07-01T02:57:20;4.97;;;3.40;;
4957;SDS011;2494;51.872;9.688;2022-07-01T02:59:46;4.13;;;3.83;;
4957;SDS011;2494;51.872;9.688;2022-07-01T03:02:13;3.97;;;3.50;;
4957;SDS011;2494;51.872;9.688;2022-07-01T03:04:40;3.70;;;3.50;;
4957;SDS011;2494;51.872;9.688;2022-07-01T03:07:07;3.40;;;3.10;;
4957;SDS011;2494;51.872;9.688;2022-07-01T03:09:33;5.23;;;4.93;;
4957;SDS011;2494;51.872;9.688;2022-07-01T03:11:59;4.37;;;3.97;;
4957;SDS011;2494;51.872;9.688;2022-07-01T03:14:46;4.37;;;3.93;;
4957;SDS011;2494;51.872;9.688;2022-07-01T03:17:12;5.27;;;4.97;;
4957;SDS011;2494;51.872;9.688;2022-07-01T03:19:38;5.17;;;4.67;;
4957;SDS011;2494;51.872;9.688;2022-07-01T03:22:06;4.40;;;4.10;;
4957;SDS011;2494;51.872;9.688;2022-07-01T03:24:32;4.47;;;4.00;;
4957;SDS011;2494;51.872;9.688;2022-07-01T03:26:58;5.03;;;4.60;;
4957;SDS011;2494;51.872;9.688;2022-07-01T03:29:25;3.53;;;3.33;;
4957;SDS011;2494;51.872;9.688;2022-07-01T03:31:51;4.60;;;4.30;;
4957;SDS011;2494;51.872;9.688;2022-07-01T03:34:17;4.60;;;4.10;;
4957;SDS011;2494;51.872;9.688;2022-07-01T03:36:44;4.40;;;4.10;;
4957;SDS011;2494;51.872;9.688;2022-07-01T03:39:11;4.87;;;4.57;;
4957;SDS011;2494;51.872;9.688;2022-07-01T03:41:38;4.33;;;4.03;;
4957;SDS011;2494;51.872;9.688;2022-07-01T03:44:04;5.67;;;4.27;;
4957;SDS011;2494;51.872;9.688;2022-07-01T03:46:31;4.30;;;4.10;;
4957;SDS011;2494;51.872;9.688;2022-07-01T03:48:57;5.93;;;4.43;;
4957;SDS011;2494;51.872;9.688;2022-07-01T03:51:23;4.43;;;4.10;;
4957;SDS011;2494;51.872;9.688;2022-07-01T03:53:50;5.17;;;4.57;;
4957;SDS011;2494;51.872;9.688;2022-07-01T03:56:35;4.57;;;4.27;;
4957;SDS011;2494;51.872;9.688;2022-07-01T03:59:01;5.90;;;4.63;;
4957;SDS011;2494;51.872;9.688;2022-07-01T04:01:28;5.67;;;5.27;;
4957;SDS011;2494;51.872;9.688;2022-07-01T04:03:54;4.93;;;4.63;;
4957;SDS011;2494;51.872;9.688;2022-07-01T04:06:20;5.20;;;4.80;;
4957;SDS011;2494;51.872;9.688;2022-07-01T04:08:47;4.83;;;4.53;;
4957;SDS011;2494;51.872;9.688;2022-07-01T04:11:13;4.30;;;4.10;;
4957;SDS011;2494;51.872;9.688;2022-07-01T04:13:41;4.97;;;4.67;;
4957;SDS011;2494;51.872;9.688;2022-07-01T04:16:11;4.00;;;3.80;;
4957;SDS011;2494;51.872;9.688;2022-07-01T04:18:38;4.63;;;4.33;;
4957;SDS011;2494;51.872;9.688;2022-07-01T04:21:04;5.03;;;3.63;;
4957;SDS011;2494;51.872;9.688;2022-07-01T04:23:48;3.80;;;3.50;;
4957;SDS011;2494;51.872;9.688;2022-07-01T04:26:15;3.93;;;3.60;;
4957;SDS011;2494;51.872;9.688;2022-07-01T04:28:43;3.93;;;3.70;;
4957;SDS011;2494;51.872;9.688;2022-07-01T04:31:09;5.73;;;4.03;;
4957;SDS011;2494;51.872;9.688;2022-07-01T04:33:35;3.03;;;2.83;;
4957;SDS011;2494;51.872;9.688;2022-07-01T04:36:02;3.93;;;3.73;;
4957;SDS011;2494;51.872;9.688;2022-07-01T04:38:28;2.87;;;2.70;;
4957;SDS011;2494;51.872;9.688;2022-07-01T04:40:54;3.57;;;3.37;;
4957;SDS011;2494;51.872;9.688;2022-07-01T04:43:38;3.60;;;3.40;;
4957;SDS011;2494;51.872;9.688;2022-07-01T04:46:06;2.73;;;2.50;;
4957;SDS011;2494;51.872;9.688;2022-07-01T04:48:33;2.93;;;2.73;;
4957;SDS011;2494;51.872;9.688;2022-07-01T04:50:59;3.20;;;2.83;;
4957;SDS011;2494;51.872;9.688;2022-07-01T04:53:25;3.10;;;2.60;;
4957;SDS011;2494;51.872;9.688;2022-07-01T04:55:52;2.30;;;2.20;;
4957;SDS011;2494;51.872;9.688;2022-07-01T04:58:18;2.73;;;2.50;;
4957;SDS011;2494;51.872;9.688;2022-07-01T05:00:44;2.40;;;2.20;;
4957;SDS011;2494;51.872;9.688;2022-07-01T05:03:12;2.40;;;2.30;;
4957;SDS011;2494;51.872;9.688;2022-07-01T05:05:38;3.40;;;3.20;;
4957;SDS011;2494;51.872;9.688;2022-07-01T05:08:04;3.30;;;3.00;;
4957;SDS011;2494;51.872;9.688;2022-07-01T05:10:31;2.70;;;2.50;;
4957;SDS011;2494;51.872;9.688;2022-07-01T05:12:58;3.77;;;3.27;;
4957;SDS011;2494;51.872;9.688;2022-07-01T05:15:24;3.70;;;3.50;;
4957;SDS011;2494;51.872;9.688;2022-07-01T05:17:50;5.40;;;5.10;;
4957;SDS011;2494;51.872;9.688;2022-07-01T05:20:35;5.60;;;5.30;;
4957;SDS011;2494;51.872;9.688;2022-07-01T05:23:19;6.10;;;5.70;;
4957;SDS011;2494;51.872;9.688;2022-07-01T05:25:46;5.53;;;5.20;;
4957;SDS011;2494;51.872;9.688;2022-07-01T05:28:12;5.93;;;5.33;;
4957;SDS011;2494;51.872;9.688;2022-07-01T05:30:39;6.70;;;6.30;;
4957;SDS011;2494;51.872;9.688;2022-07-01T05:33:05;6.80;;;6.37;;
4957;SDS011;2494;51.872;9.688;2022-07-01T05:35:31;7.57;;;6.90;;
4957;SDS011;2494;51.872;9.688;2022-07-01T05:37:59;7.97;;;7.27;;
4957;SDS011;2494;51.872;9.688;2022-07-01T05:40:26;9.17;;;8.47;;
4957;SDS011;2494;51.872;9.688;2022-07-01T05:42:52;8.13;;;7.53;;
4957;SDS011;2494;51.872;9.688;2022-07-01T05:45:18;8.40;;;7.70;;
4957;SDS011;2494;51.872;9.688;2022-07-01T05:47:45;9.83;;;9.03;;
4957;SDS011;2494;51.872;9.688;2022-07-01T05:50:11;10.67;;;9.63;;
4957;SDS011;2494;51.872;9.688;2022-07-01T05:52:37;10.60;;;9.80;;
4957;SDS011;2494;51.872;9.688;2022-07-01T05:55:05;9.50;;;8.80;;
4957;SDS011;2494;51.872;9.688;2022-07-01T05:57:32;9.30;;;8.67;;
4957;SDS011;2494;51.872;9.688;2022-07-01T05:59:58;9.77;;;9.07;;
4957;SDS011;2494;51.872;9.688;2022-07-01T06:02:24;9.23;;;8.63;;
4957;SDS011;2494;51.872;9.688;2022-07-01T06:04:50;10.13;;;9.43;;
4957;SDS011;2494;51.872;9.688;2022-07-01T06:07:17;9.07;;;8.37;;
4957;SDS011;2494;51.872;9.688;2022-07-01T06:09:43;10.00;;;9.00;;
4957;SDS011;2494;51.872;9.688;2022-07-01T06:12:11;9.70;;;9.00;;
4957;SDS011;2494;51.872;9.688;2022-07-01T06:14:37;9.47;;;8.77;;
4957;SDS011;2494;51.872;9.688;2022-07-01T06:17:03;10.70;;;9.80;;
4957;SDS011;2494;51.872;9.688;2022-07-01T06:19:30;9.70;;;8.90;;
4957;SDS011;2494;51.872;9.688;2022-07-01T06:21:56;9.03;;;8.33;;
4957;SDS011;2494;51.872;9.688;2022-07-01T06:24:22;10.60;;;9.73;;
4957;SDS011;2494;51.872;9.688;2022-07-01T06:26:49;11.10;;;10.10;;
4957;SDS011;2494;51.872;9.688;2022-07-01T06:29:17;12.03;;;11.03;;
4957;SDS011;2494;51.872;9.688;2022-07-01T06:31:43;12.03;;;11.13;;
4957;SDS011;2494;51.872;9.688;2022-07-01T06:34:09;10.73;;;9.87;;
4957;SDS011;2494;51.872;9.688;2022-07-01T06:36:35;11.33;;;10.43;;
4957;SDS011;2494;51.872;9.688;2022-07-01T06:39:02;11.83;;;10.90;;
4957;SDS011;2494;51.872;9.688;2022-07-01T06:41:28;12.67;;;11.37;;
4957;SDS011;2494;51.872;9.688;2022-07-01T06:43:54;12.30;;;11.20;;
4957;SDS011;2494;51.872;9.688;2022-07-01T06:46:22;13.67;;;12.33;;
4957;SDS011;2494;51.872;9.688;2022-07-01T06:48:48;12.67;;;11.60;;
4957;SDS011;2494;51.872;9.688;2022-07-01T06:51:15;12.10;;;11.13;;
4957;SDS011;2494;51.872;9.688;2022-07-01T06:53:41;14.37;;;13.17;;
4957;SDS011;2494;51.872;9.688;2022-07-01T06:56:09;13.67;;;12.47;;
4957;SDS011;2494;51.872;9.688;2022-07-01T06:58:36;15.00;;;13.60;;
4957;SDS011;2494;51.872;9.688;2022-07-01T07:01:03;16.47;;;14.97;;
4957;SDS011;2494;51.872;9.688;2022-07-01T07:03:30;15.73;;;14.53;;
4957;SDS011;2494;51.872;9.688;2022-07-01T07:05:57;15.40;;;14.00;;
4957;SDS011;2494;51.872;9.688;2022-07-01T07:08:24;15.40;;;14.07;;
4957;SDS011;2494;51.872;9.688;2022-07-01T07:10:50;15.60;;;14.00;;
4957;SDS011;2494;51.872;9.688;2022-07-01T07:13:16;15.57;;;14.20;;
4957;SDS011;2494;51.872;9.688;2022-07-01T07:15:43;15.73;;;14.30;;
4957;SDS011;2494;51.872;9.688;2022-07-01T07:18:09;15.50;;;14.20;;
4957;SDS011;2494;51.872;9.688;2022-07-01T07:20:36;16.70;;;15.30;;
4957;SDS011;2494;51.872;9.688;2022-07-01T07:23:03;15.17;;;13.77;;
4957;SDS011;2494;51.872;9.688;2022-07-01T07:25:29;15.63;;;14.33;;
4957;SDS011;2494;51.872;9.688;2022-07-01T07:27:56;15.67;;;14.27;;
4957;SDS011;2494;51.872;9.688;2022-07-01T07:30:22;15.87;;;14.57;;
4957;SDS011;2494;51.872;9.688;2022-07-01T07:32:49;15.10;;;13.90;;
4957;SDS011;2494;51.872;9.688;2022-07-01T07:35:15;14.43;;;13.23;;
4957;SDS011;2494;51.872;9.688;2022-07-01T07:37:43;14.10;;;12.70;;
4957;SDS011;2494;51.872;9.688;2022-07-01T07:40:11;13.40;;;12.30;;
4957;SDS011;2494;51.872;9.688;2022-07-01T07:42:40;11.70;;;10.70;;
4957;SDS011;2494;51.872;9.688;2022-07-01T07:45:07;11.57;;;10.73;;
4957;SDS011;2494;51.872;9.688;2022-07-01T07:47:33;11.97;;;10.97;;
4957;SDS011;2494;51.872;9.688;2022-07-01T07:50:00;11.37;;;10.57;;
4957;SDS011;2494;51.872;9.688;2022-07-01T07:52:27;11.67;;;10.77;;
4957;SDS011;2494;51.872;9.688;2022-07-01T07:54:55;11.37;;;10.47;;
4957;SDS011;2494;51.872;9.688;2022-07-01T07:57:21;11.87;;;10.97;;
4957;SDS011;2494;51.872;9.688;2022-07-01T07:59:47;11.80;;;10.90;;
4957;SDS011;2494;51.872;9.688;2022-07-01T08:02:14;10.20;;;9.40;;
4957;SDS011;2494;51.872;9.688;2022-07-01T08:04:40;10.20;;;9.50;;
4957;SDS011;2494;51.872;9.688;2022-07-01T08:07:06;8.63;;;8.03;;
4957;SDS011;2494;51.872;9.688;2022-07-01T08:09:32;7.80;;;7.30;;
4957;SDS011;2494;51.872;9.688;2022-07-01T08:12:01;8.30;;;7.70;;
4957;SDS011;2494;51.872;9.688;2022-07-01T08:14:27;8.10;;;7.40;;
4957;SDS011;2494;51.872;9.688;2022-07-01T08:16:53;9.07;;;8.37;;
4957;SDS011;2494;51.872;9.688;2022-07-01T08:19:20;8.67;;;7.87;;
4957;SDS011;2494;51.872;9.688;2022-07-01T08:21:46;9.67;;;8.90;;
4957;SDS011;2494;51.872;9.688;2022-07-01T08:24:13;10.43;;;9.53;;
4957;SDS011;2494;51.872;9.688;2022-07-01T08:26:39;8.97;;;8.27;;
4957;SDS011;2494;51.872;9.688;2022-07-01T08:29:06;9.80;;;8.80;;
4957;SDS011;2494;51.872;9.688;2022-07-01T08:31:33;9.40;;;8.70;;
4957;SDS011;2494;51.872;9.688;2022-07-01T08:33:59;14.00;;;8.50;;
4957;SDS011;2494;51.872;9.688;2022-07-01T08:36:27;9.87;;;8.97;;
4957;SDS011;2494;51.872;9.688;2022-07-01T08:38:53;10.07;;;9.07;;
4957;SDS011;2494;51.872;9.688;2022-07-01T08:41:19;10.80;;;9.93;;
4957;SDS011;2494;51.872;9.688;2022-07-01T08:43:46;8.70;;;8.10;;
4957;SDS011;2494;51.872;9.688;2022-07-01T08:46:13;10.90;;;10.10;;
4957;SDS011;2494;51.872;9.688;2022-07-01T08:48:41;11.17;;;9.77;;
4957;SDS011;2494;51.872;9.688;2022-07-01T08:51:07;10.27;;;9.47;;
4957;SDS011;2494;51.872;9.688;2022-07-01T08:53:34;10.00;;;9.20;;
4957;SDS011;2494;51.872;9.688;2022-07-01T08:56:01;12.30;;;11.20;;
4957;SDS011;2494;51.872;9.688;2022-07-01T08:58:45;12.30;;;11.10;;
4957;SDS011;2494;51.872;9.688;2022-07-01T09:01:11;13.77;;;12.47;;
4957;SDS011;2494;51.872;9.688;2022-07-01T09:03:39;13.37;;;12.23;;
4957;SDS011;2494;51.872;9.688;2022-07-01T09:06:10;14.53;;;13.20;;
4957;SDS011;2494;51.872;9.688;2022-07-01T09:08:36;16.63;;;14.93;;
4957;SDS011;2494;51.872;9.688;2022-07-01T09:11:10;16.00;;;14.43;;
4957;SDS011;2494;51.872;9.688;2022-07-01T09:13:36;20.30;;;18.30;;
4957;SDS011;2494;51.872;9.688;2022-07-01T09:16:03;19.90;;;17.93;;
4957;SDS011;2494;51.872;9.688;2022-07-01T09:18:36;20.47;;;18.33;;
4957;SDS011;2494;51.872;9.688;2022-07-01T09:21:05;21.70;;;19.40;;
4957;SDS011;2494;51.872;9.688;2022-07-01T09:23:33;20.90;;;18.70;;
4957;SDS011;2494;51.872;9.688;2022-07-01T09:25:59;22.93;;;20.63;;
4957;SDS011;2494;51.872;9.688;2022-07-01T09:28:26;20.37;;;18.37;;
4957;SDS011;2494;51.872;9.688;2022-07-01T09:30:53;21.97;;;19.77;;
4957;SDS011;2494;51.872;9.688;2022-07-01T09:33:20;22.93;;;20.67;;
4957;SDS011;2494;51.872;9.688;2022-07-01T09:35:48;25.07;;;22.57;;
4957;SDS011;2494;51.872;9.688;2022-07-01T09:38:16;25.03;;;22.53;;
4957;SDS011;2494;51.872;9.688;2022-07-01T09:40:52;24.00;;;21.50;;
4957;SDS011;2494;51.872;9.688;2022-07-01T09:43:20;25.00;;;21.80;;
4957;SDS011;2494;51.872;9.688;2022-07-01T09:45:50;24.13;;;21.63;;
4957;SDS011;2494;51.872;9.688;2022-07-01T09:48:17;21.47;;;19.37;;
4957;SDS011;2494;51.872;9.688;2022-07-01T09:50:44;21.27;;;19.27;;
4957;SDS011;2494;51.872;9.688;2022-07-01T09:53:10;21.53;;;19.50;;
4957;SDS011;2494;51.872;9.688;2022-07-01T09:55:38;19.20;;;17.50;;
4957;SDS011;2494;51.872;9.688;2022-07-01T09:58:04;19.07;;;17.37;;
4957;SDS011;2494;51.872;9.688;2022-07-01T10:00:31;16.53;;;15.13;;
4957;SDS011;2494;51.872;9.688;2022-07-01T10:02:58;18.30;;;16.70;;
4957;SDS011;2494;51.872;9.688;2022-07-01T10:05:25;16.60;;;15.30;;
4957;SDS011;2494;51.872;9.688;2022-07-01T10:07:55;17.77;;;16.27;;
4957;SDS011;2494;51.872;9.688;2022-07-01T10:10:27;15.27;;;13.87;;
4957;SDS011;2494;51.872;9.688;2022-07-01T10:13:00;15.03;;;13.83;;
4957;SDS011;2494;51.872;9.688;2022-07-01T10:15:28;15.67;;;14.43;;
4957;SDS011;2494;51.872;9.688;2022-07-01T10:17:56;14.23;;;13.20;;
4957;SDS011;2494;51.872;9.688;2022-07-01T10:20:23;13.40;;;12.40;;
4957;SDS011;2494;51.872;9.688;2022-07-01T10:22:50;12.93;;;12.00;;
4957;SDS011;2494;51.872;9.688;2022-07-01T10:25:29;14.07;;;12.97;;
4957;SDS011;2494;51.872;9.688;2022-07-01T10:28:12;11.63;;;10.73;;
4957;SDS011;2494;51.872;9.688;2022-07-01T10:30:47;10.47;;;9.77;;
4957;SDS011;2494;51.872;9.688;2022-07-01T10:33:21;11.70;;;10.80;;
4957;SDS011;2494;51.872;9.688;2022-07-01T10:35:52;10.50;;;9.80;;
4957;SDS011;2494;51.872;9.688;2022-07-01T10:38:18;12.00;;;10.97;;
4957;SDS011;2494;51.872;9.688;2022-07-01T10:40:45;10.87;;;10.10;;
4957;SDS011;2494;51.872;9.688;2022-07-01T10:43:16;11.10;;;10.40;;
4957;SDS011;2494;51.872;9.688;2022-07-01T10:45:43;10.03;;;9.43;;
4957;SDS011;2494;51.872;9.688;2022-07-01T10:48:19;10.43;;;9.67;;
4957;SDS011;2494;51.872;9.688;2022-07-01T10:50:46;11.73;;;9.73;;
4957;SDS011;2494;51.872;9.688;2022-07-01T10:53:12;11.97;;;11.17;;
4957;SDS011;2494;51.872;9.688;2022-07-01T10:55:39;11.83;;;10.83;;
4957;SDS011;2494;51.872;9.688;2022-07-01T10:58:06;11.97;;;11.17;;
4957;SDS011;2494;51.872;9.688;2022-07-01T11:00:34;10.47;;;9.77;;
4957;SDS011;2494;51.872;9.688;2022-07-01T11:03:05;12.50;;;11.50;;
4957;SDS011;2494;51.872;9.688;2022-07-01T11:05:31;11.37;;;10.60;;
4957;SDS011;2494;51.872;9.688;2022-07-01T11:07:57;12.70;;;11.60;;
4957;SDS011;2494;51.872;9.688;2022-07-01T11:10:24;11.43;;;10.63;;
4957;SDS011;2494;51.872;9.688;2022-07-01T11:12:50;12.10;;;10.90;;
4957;SDS011;2494;51.872;9.688;2022-07-01T11:15:17;14.70;;;13.40;;
4957;SDS011;2494;51.872;9.688;2022-07-01T11:17:46;13.80;;;12.70;;
4957;SDS011;2494;51.872;9.688;2022-07-01T11:20:13;14.30;;;13.10;;
4957;SDS011;2494;51.872;9.688;2022-07-01T11:22:39;14.80;;;13.70;;
4957;SDS011;2494;51.872;9.688;2022-07-01T11:25:06;16.40;;;15.10;;
4957;SDS011;2494;51.872;9.688;2022-07-01T11:27:33;17.20;;;15.80;;
4957;SDS011;2494;51.872;9.688;2022-07-01T11:30:03;16.83;;;15.43;;
4957;SDS011;2494;51.872;9.688;2022-07-01T11:32:31;16.23;;;14.93;;
4957;SDS011;2494;51.872;9.688;2022-07-01T11:34:59;17.40;;;16.00;;
4957;SDS011;2494;51.872;9.688;2022-07-01T11:37:26;16.77;;;15.23;;
4957;SDS011;2494;51.872;9.688;2022-07-01T11:40:11;16.20;;;15.10;;
4957;SDS011;2494;51.872;9.688;2022-07-01T11:42:38;17.33;;;15.90;;
4957;SDS011;2494;51.872;9.688;2022-07-01T11:45:05;15.40;;;13.90;;
4957;SDS011;2494;51.872;9.688;2022-07-01T11:47:31;15.40;;;14.10;;
4957;SDS011;2494;51.872;9.688;2022-07-01T11:49:59;15.90;;;14.80;;
4957;SDS011;2494;51.872;9.688;2022-07-01T11:52:26;15.80;;;14.30;;
4957;SDS011;2494;51.872;9.688;2022-07-01T11:54:53;13.67;;;12.87;;
4957;SDS011;2494;51.872;9.688;2022-07-01T11:57:20;13.70;;;12.80;;
4957;SDS011;2494;51.872;9.688;2022-07-01T11:59:48;12.87;;;11.97;;
4957;SDS011;2494;51.872;9.688;2022-07-01T12:02:16;13.60;;;12.60;;
4957;SDS011;2494;51.872;9.688;2022-07-01T12:04:43;12.37;;;11.37;;
4957;SDS011;2494;51.872;9.688;2022-07-01T12:07:12;12.80;;;11.93;;
4957;SDS011;2494;51.872;9.688;2022-07-01T12:09:38;12.10;;;11.30;;
4957;SDS011;2494;51.872;9.688;2022-07-01T12:12:05;12.93;;;11.97;;
4957;SDS011;2494;51.872;9.688;2022-07-01T12:14:32;12.07;;;11.00;;
4957;SDS011;2494;51.872;9.688;2022-07-01T12:16:59;11.50;;;10.70;;
4957;SDS011;2494;51.872;9.688;2022-07-01T12:19:26;12.47;;;11.60;;
4957;SDS011;2494;51.872;9.688;2022-07-01T12:21:55;12.63;;;11.63;;
4957;SDS011;2494;51.872;9.688;2022-07-01T12:24:24;13.00;;;12.00;;
4957;SDS011;2494;51.872;9.688;2022-07-01T12:26:51;11.33;;;10.63;;
4957;SDS011;2494;51.872;9.688;2022-07-01T12:29:18;11.93;;;10.90;;
4957;SDS011;2494;51.872;9.688;2022-07-01T12:31:53;11.87;;;10.67;;
4957;SDS011;2494;51.872;9.688;2022-07-01T12:34:20;11.77;;;11.07;;
4957;SDS011;2494;51.872;9.688;2022-07-01T12:36:47;10.70;;;9.93;;
4957;SDS011;2494;51.872;9.688;2022-07-01T12:39:13;10.77;;;9.97;;
4957;SDS011;2494;51.872;9.688;2022-07-01T12:41:43;10.03;;;9.23;;
4957;SDS011;2494;51.872;9.688;2022-07-01T12:44:19;11.33;;;10.47;;
4957;SDS011;2494;51.872;9.688;2022-07-01T12:46:46;10.87;;;9.93;;
4957;SDS011;2494;51.872;9.688;2022-07-01T12:49:17;11.17;;;10.27;;
4957;SDS011;2494;51.872;9.688;2022-07-01T12:51:44;10.77;;;10.07;;
4957;SDS011;2494;51.872;9.688;2022-07-01T12:54:23;9.50;;;8.80;;
4957;SDS011;2494;51.872;9.688;2022-07-01T12:56:55;10.97;;;10.37;;
4957;SDS011;2494;51.872;9.688;2022-07-01T12:59:21;10.70;;;10.00;;
4957;SDS011;2494;51.872;9.688;2022-07-01T13:01:47;10.60;;;9.90;;
4957;SDS011;2494;51.872;9.688;2022-07-01T13:04:14;11.00;;;10.00;;
4957;SDS011;2494;51.872;9.688;2022-07-01T13:06:48;10.30;;;9.60;;
4957;SDS011;2494;51.872;9.688;2022-07-01T13:09:15;11.30;;;10.37;;
4957;SDS011;2494;51.872;9.688;2022-07-01T13:11:41;10.47;;;9.77;;
4957;SDS011;2494;51.872;9.688;2022-07-01T13:14:08;11.53;;;10.70;;
4957;SDS011;2494;51.872;9.688;2022-07-01T13:16:35;10.33;;;9.63;;
4957;SDS011;2494;51.872;9.688;2022-07-01T13:19:01;8.50;;;8.00;;
4957;SDS011;2494;51.872;9.688;2022-07-01T13:21:27;8.93;;;8.43;;
4957;SDS011;2494;51.872;9.688;2022-07-01T13:23:54;8.97;;;8.37;;
4957;SDS011;2494;51.872;9.688;2022-07-01T13:26:20;8.00;;;7.60;;
4957;SDS011;2494;51.872;9.688;2022-07-01T13:28:46;8.00;;;7.60;;
4957;SDS011;2494;51.872;9.688;2022-07-01T13:31:14;7.67;;;7.17;;
4957;SDS011;2494;51.872;9.688;2022-07-01T13:33:40;6.90;;;6.43;;
4957;SDS011;2494;51.872;9.688;2022-07-01T13:36:07;7.13;;;6.63;;
4957;SDS011;2494;51.872;9.688;2022-07-01T13:38:33;6.73;;;6.43;;
4957;SDS011;2494;51.872;9.688;2022-07-01T13:41:01;7.57;;;6.93;;
4957;SDS011;2494;51.872;9.688;2022-07-01T13:43:27;5.70;;;5.40;;
4957;SDS011;2494;51.872;9.688;2022-07-01T13:45:54;6.47;;;5.77;;
4957;SDS011;2494;51.872;9.688;2022-07-01T13:48:21;5.97;;;5.57;;
4957;SDS011;2494;51.872;9.688;2022-07-01T13:50:48;6.20;;;5.80;;
4957;SDS011;2494;51.872;9.688;2022-07-01T13:53:14;5.70;;;5.40;;
4957;SDS011;2494;51.872;9.688;2022-07-01T13:55:40;5.43;;;5.03;;
4957;SDS011;2494;51.872;9.688;2022-07-01T13:58:06;6.47;;;5.97;;
4957;SDS011;2494;51.872;9.688;2022-07-01T14:00:33;5.77;;;5.37;;
4957;SDS011;2494;51.872;9.688;2022-07-01T14:02:59;5.63;;;5.13;;
4957;SDS011;2494;51.872;9.688;2022-07-01T14:05:27;4.87;;;4.30;;
4957;SDS011;2494;51.872;9.688;2022-07-01T14:07:53;5.90;;;5.50;;
4957;SDS011;2494;51.872;9.688;2022-07-01T14:10:19;6.07;;;5.63;;
4957;SDS011;2494;51.872;9.688;2022-07-01T14:12:46;5.83;;;5.40;;
4957;SDS011;2494;51.872;9.688;2022-07-01T14:15:12;7.17;;;5.33;;
4957;SDS011;2494;51.872;9.688;2022-07-01T14:17:38;5.00;;;4.80;;
4957;SDS011;2494;51.872;9.688;2022-07-01T14:20:05;5.33;;;5.03;;
4957;SDS011;2494;51.872;9.688;2022-07-01T14:22:33;4.73;;;4.47;;
4957;SDS011;2494;51.872;9.688;2022-07-01T14:24:59;5.60;;;5.10;;
4957;SDS011;2494;51.872;9.688;2022-07-01T14:27:25;4.40;;;4.20;;
4957;SDS011;2494;51.872;9.688;2022-07-01T14:29:51;4.20;;;3.90;;
4957;SDS011;2494;51.872;9.688;2022-07-01T14:32:18;4.20;;;3.80;;
4957;SDS011;2494;51.872;9.688;2022-07-01T14:34:49;3.70;;;3.40;;
4957;SDS011;2494;51.872;9.688;2022-07-01T14:37:15;4.53;;;4.23;;
4957;SDS011;2494;51.872;9.688;2022-07-01T14:39:43;4.60;;;4.20;;
4957;SDS011;2494;51.872;9.688;2022-07-01T14:42:09;4.50;;;4.20;;
4957;SDS011;2494;51.872;9.688;2022-07-01T14:44:36;4.50;;;4.10;;
4957;SDS011;2494;51.872;9.688;2022-07-01T14:47:02;4.50;;;4.10;;
4957;SDS011;2494;51.872;9.688;2022-07-01T14:49:29;6.20;;;4.30;;
4957;SDS011;2494;51.872;9.688;2022-07-01T14:51:55;6.70;;;4.63;;
4957;SDS011;2494;51.872;9.688;2022-07-01T14:54:21;4.43;;;4.03;;
4957;SDS011;2494;51.872;9.688;2022-07-01T14:56:49;3.83;;;3.57;;
4957;SDS011;2494;51.872;9.688;2022-07-01T14:59:15;4.40;;;4.10;;
4957;SDS011;2494;51.872;9.688;2022-07-01T15:01:41;4.30;;;4.00;;
4957;SDS011;2494;51.872;9.688;2022-07-01T15:04:08;5.43;;;5.03;;
4957;SDS011;2494;51.872;9.688;2022-07-01T15:06:34;4.00;;;3.70;;
4957;SDS011;2494;51.872;9.688;2022-07-01T15:09:00;4.70;;;4.20;;
4957;SDS011;2494;51.872;9.688;2022-07-01T15:11:27;4.30;;;4.00;;
4957;SDS011;2494;51.872;9.688;2022-07-01T15:13:54;4.73;;;4.33;;